Time;durP1;ratioP1;P1;durP2;ratioP2;P2;SDS_P1;SDS_P2;PMS_P1;PMS_P2;Temp;Humidity;BMP_temperature;BMP_pressure;BME280_temperature;BME280_humidity;BME280_pressure;Samples;Min_cycle;Max_cycle;Signal;HPM_P1;HPM_P2
2023/08/30 00:00:55;;;;;;;6.38;4.07;;;;;;;28.94;44.58;97807.69;4790310;29;20695;-88
2023/08/30 00:03:22;;;;;;;5.93;3.53;;;;;;;28.77;44.82;97804.00;4787316;30;20191;-88
2023/08/30 00:05:47;;;;;;;8.13;3.28;;;;;;;28.71;45.46;97795.97;4802622;29;20226;-88
2023/08/30 00:08:17;;;;;;;7.20;4.13;;;;;;;28.68;45.32;97804.53;4794309;29;20191;-87
2023/08/30 00:10:45;;;;;;;12.32;4.10;;;;;;;28.51;46.10;97798.91;4794537;29;20178;-88
2023/08/30 00:13:11;;;;;;;9.38;3.72;;;;;;;28.41;45.91;97799.44;4790186;29;20190;-88
2023/08/30 00:15:38;;;;;;;8.30;3.30;;;;;;;28.41;46.22;97793.22;4789948;29;20656;-88
2023/08/30 00:18:03;;;;;;;7.88;3.88;;;;;;;28.31;46.56;97784.84;4793883;29;20194;-88
2023/08/30 00:20:30;;;;;;;6.05;3.50;;;;;;;28.34;46.37;97787.09;4794243;29;20198;-88
2023/08/30 00:22:56;;;;;;;7.38;3.60;;;;;;;28.22;46.88;97787.03;4785086;29;20221;-87
2023/08/30 00:25:22;;;;;;;10.88;3.92;;;;;;;28.30;46.69;97786.72;4798890;29;20242;-88
2023/08/30 00:27:49;;;;;;;9.85;3.65;;;;;;;28.30;46.70;97781.31;4805880;29;20198;-88
2023/08/30 00:30:15;;;;;;;5.45;3.20;;;;;;;28.20;47.09;97786.41;4793674;29;20327;-88
2023/08/30 00:32:40;;;;;;;7.97;3.90;;;;;;;28.12;47.30;97783.22;4804366;29;20285;-88
2023/08/30 00:35:07;;;;;;;6.60;3.80;;;;;;;27.98;47.94;97777.13;4794990;29;20490;-88
2023/08/30 00:37:33;;;;;;;4.80;3.17;;;;;;;27.98;47.92;97782.50;4805779;29;20232;-88
2023/08/30 00:39:59;;;;;;;9.43;4.20;;;;;;;27.97;47.75;97775.47;4805474;29;20644;-88
2023/08/30 00:42:27;;;;;;;8.65;4.00;;;;;;;27.95;48.01;97772.19;4805637;29;20197;-88
2023/08/30 00:44:52;;;;;;;6.88;4.18;;;;;;;27.78;48.30;97774.63;4805656;29;20733;-87
2023/08/30 00:47:20;;;;;;;8.77;4.03;;;;;;;27.85;47.92;97772.69;4809058;29;20216;-87
2023/08/30 00:49:45;;;;;;;6.00;3.40;;;;;;;27.80;48.51;97774.41;4803921;29;20186;-87
2023/08/30 00:52:12;;;;;;;7.38;3.90;;;;;;;27.72;48.84;97777.38;4802217;29;20735;-87
2023/08/30 00:54:39;;;;;;;5.43;3.42;;;;;;;27.72;48.93;97772.00;4809296;29;20171;-88
2023/08/30 00:57:05;;;;;;;7.72;3.33;;;;;;;27.70;48.69;97776.78;4795164;29;20199;-88
2023/08/30 00:59:33;;;;;;;6.65;3.75;;;;;;;27.78;48.92;97771.09;4796724;29;20645;-88
2023/08/30 01:01:59;;;;;;;12.32;3.83;;;;;;;27.76;48.77;97768.63;4791248;29;20174;-88
2023/08/30 01:04:25;;;;;;;9.82;3.25;;;;;;;27.88;48.35;97776.81;4798818;29;20195;-88
2023/08/30 01:06:52;;;;;;;6.57;3.25;;;;;;;27.95;48.21;97777.56;4808337;29;20187;-88
2023/08/30 01:09:18;;;;;;;11.25;3.75;;;;;;;28.02;47.72;97779.16;4795903;29;20225;-88
2023/08/30 01:12:27;;;;;;;5.22;3.28;;;;;;;28.03;48.44;97774.59;4809130;29;20669;-88
2023/08/30 01:15:01;;;;;;;11.50;3.58;;;;;;;28.02;48.19;97772.94;4758431;29;20271;-88
2023/08/30 01:17:29;;;;;;;7.45;3.47;;;;;;;27.78;48.39;97782.69;4796368;29;20191;-88
2023/08/30 01:20:16;;;;;;;9.68;3.30;;;;;;;27.67;48.33;97788.84;4800630;29;20252;-88
2023/08/30 01:23:15;;;;;;;5.22;3.50;;;;;;;27.79;48.18;97783.53;4791282;29;20285;-88
2023/08/30 01:26:20;;;;;;;5.22;3.10;;;;;;;27.75;48.48;97788.53;4790797;29;20217;-88
2023/08/30 01:28:47;;;;;;;10.45;3.30;;;;;;;27.72;48.27;97794.38;4791512;29;20626;-88
2023/08/30 01:31:14;;;;;;;8.63;3.65;;;;;;;27.71;48.41;97792.72;4808682;29;20205;-88
2023/08/30 01:33:41;;;;;;;6.13;3.22;;;;;;;27.72;48.28;97793.53;4790703;29;20263;-88
2023/08/30 01:36:07;;;;;;;5.65;3.22;;;;;;;27.70;48.43;97795.63;4777671;30;20710;-88
2023/08/30 01:38:35;;;;;;;8.20;3.13;;;;;;;27.77;47.91;97807.16;4799932;29;20186;-88
2023/08/30 01:41:02;;;;;;;5.28;3.00;;;;;;;27.73;48.17;97796.00;4793219;29;20186;-88
2023/08/30 01:43:30;;;;;;;6.45;3.17;;;;;;;27.65;48.18;97804.38;4802627;29;20250;-88
2023/08/30 01:45:57;;;;;;;4.78;3.05;;;;;;;27.61;48.38;97799.66;4802839;29;20216;-88
2023/08/30 01:48:25;;;;;;;12.93;4.30;;;;;;;27.37;49.26;97802.09;4801642;29;20269;-88
2023/08/30 01:50:51;;;;;;;6.97;3.15;;;;;;;27.49;48.81;97802.22;4808017;29;20565;-88
2023/08/30 01:53:19;;;;;;;6.55;3.45;;;;;;;27.48;48.99;97803.28;4808503;29;20179;-88
2023/08/30 01:55:46;;;;;;;5.03;2.67;;;;;;;27.58;48.73;97802.78;4808137;29;20186;-88
2023/08/30 01:58:14;;;;;;;8.05;3.35;;;;;;;27.62;47.96;97812.06;4807135;29;20190;-87
2023/08/30 02:00:40;;;;;;;9.90;3.90;;;;;;;27.66;48.22;97808.72;4807893;29;20265;-88
2023/08/30 02:03:13;;;;;;;6.65;3.70;;;;;;;27.63;48.31;97806.47;4795999;29;20194;-88
2023/08/30 02:06:11;;;;;;;10.88;3.63;;;;;;;27.65;48.09;97814.31;4807841;29;20669;-88
2023/08/30 02:08:41;;;;;;;5.78;3.38;;;;;;;27.71;47.69;97814.25;4780815;30;20191;-88
2023/08/30 02:11:18;;;;;;;6.75;2.85;;;;;;;27.58;48.08;97809.00;4791889;29;20194;-88
2023/08/30 02:13:45;;;;;;;6.82;3.55;;;;;;;27.52;48.71;97809.03;4804933;29;20206;-88
2023/08/30 02:16:14;;;;;;;7.40;3.47;;;;;;;27.57;48.48;97806.53;4798767;29;20211;-88
2023/08/30 02:18:40;;;;;;;6.03;3.38;;;;;;;27.49;48.66;97802.22;4808162;29;20183;-88
2023/08/30 02:21:07;;;;;;;5.53;3.38;;;;;;;27.34;48.65;97799.00;4792021;29;20558;-88
2023/08/30 02:23:33;;;;;;;8.98;3.78;;;;;;;27.28;49.05;97813.34;4791636;29;20191;-88
2023/08/30 02:26:03;;;;;;;6.78;3.15;;;;;;;27.41;48.68;97810.59;4795894;29;20204;-88
2023/08/30 02:28:28;;;;;;;6.03;3.53;;;;;;;27.41;48.18;97808.69;4805500;29;20179;-87
2023/08/30 02:30:55;;;;;;;9.40;3.78;;;;;;;27.39;48.31;97805.41;4798377;29;20269;-88
2023/08/30 02:33:21;;;;;;;5.72;2.70;;;;;;;27.43;48.14;97806.63;4792945;29;20277;-88
2023/08/30 02:35:47;;;;;;;6.78;3.40;;;;;;;27.53;47.70;97811.53;4804767;29;20267;-88
2023/08/30 02:38:13;;;;;;;8.32;3.20;;;;;;;27.58;48.02;97813.53;4789617;29;20605;-88
2023/08/30 02:40:40;;;;;;;10.23;3.83;;;;;;;27.65;48.29;97814.31;4800577;29;20195;-88
2023/08/30 02:43:07;;;;;;;6.13;3.45;;;;;;;27.77;47.74;97812.56;4791398;29;20681;-88
2023/08/30 02:45:32;;;;;;;6.45;3.03;;;;;;;27.85;47.19;97809.56;4795083;29;20703;-88
2023/08/30 02:47:59;;;;;;;6.97;3.60;;;;;;;27.82;47.21;97815.41;4791221;29;20190;-88
2023/08/30 02:50:24;;;;;;;7.57;3.53;;;;;;;27.74;48.01;97818.38;4786563;29;20720;-88
2023/08/30 02:52:52;;;;;;;8.15;3.70;;;;;;;27.66;49.01;97808.72;4773746;30;20179;-88
2023/08/30 02:55:19;;;;;;;8.50;3.42;;;;;;;27.58;49.11;97813.53;4796514;29;20198;-88
2023/08/30 02:57:46;;;;;;;9.30;4.00;;;;;;;27.52;49.39;97811.72;4805247;29;20544;-88
2023/08/30 03:00:13;;;;;;;5.97;3.38;;;;;;;27.47;49.63;97806.19;4806800;29;20194;-88
2023/08/30 03:02:39;;;;;;;7.53;3.40;;;;;;;27.40;49.57;97804.38;4804805;29;20251;-88
2023/08/30 03:05:05;;;;;;;7.93;3.30;;;;;;;27.36;49.49;97805.81;4796874;29;20202;-88
2023/08/30 03:07:30;;;;;;;7.65;3.40;;;;;;;27.42;49.24;97809.53;4803539;29;20218;-88
2023/08/30 03:09:57;;;;;;;8.35;3.40;;;;;;;27.41;48.93;97810.59;4791563;29;20244;-88
2023/08/30 03:12:22;;;;;;;9.23;3.30;;;;;;;27.31;49.61;97804.81;4801239;29;20267;-88
2023/08/30 03:14:49;;;;;;;6.18;3.20;;;;;;;27.17;50.23;97806.81;4780522;29;20629;-88
2023/08/30 03:17:15;;;;;;;7.20;3.38;;;;;;;27.09;50.62;97817.00;4787991;29;20179;-89
2023/08/30 03:19:42;;;;;;;5.45;3.30;;;;;;;27.01;50.92;97810.03;4795722;29;20191;-88
2023/08/30 03:22:07;;;;;;;7.10;3.65;;;;;;;27.05;50.23;97807.69;4788736;29;20202;-88
2023/08/30 03:24:33;;;;;;;9.97;3.73;;;;;;;27.11;50.20;97814.91;4775492;30;20211;-88
2023/08/30 03:26:59;;;;;;;6.60;3.30;;;;;;;27.12;49.79;97820.06;4795968;29;20198;-88
2023/08/30 03:29:26;;;;;;;6.95;4.18;;;;;;;27.02;50.21;97819.72;4797728;29;20178;-88
2023/08/30 03:31:51;;;;;;;5.43;3.20;;;;;;;27.04;50.69;97817.66;4801253;29;20642;-88
2023/08/30 03:34:17;;;;;;;8.32;3.65;;;;;;;27.02;50.34;97825.09;4775344;30;20198;-88
2023/08/30 03:36:44;;;;;;;8.07;3.80;;;;;;;27.07;50.15;97822.56;4785356;29;20193;-88
2023/08/30 03:39:12;;;;;;;7.60;3.50;;;;;;;27.03;50.03;97826.75;4799194;29;20190;-88
2023/08/30 03:41:38;;;;;;;7.20;3.33;;;;;;;26.85;50.58;97834.72;4805287;29;20178;-88
2023/08/30 03:44:05;;;;;;;5.63;3.30;;;;;;;26.93;50.40;97830.97;4794359;29;20190;-88
2023/08/30 03:46:30;;;;;;;6.57;3.60;;;;;;;26.96;50.19;97836.75;4802899;29;20199;-88
2023/08/30 03:48:57;;;;;;;8.30;3.80;;;;;;;26.95;49.91;97834.25;4785647;29;20198;-88
2023/08/30 03:51:22;;;;;;;8.45;3.92;;;;;;;26.86;50.57;97839.03;4780483;30;20251;-88
2023/08/30 03:53:48;;;;;;;7.20;4.03;;;;;;;26.79;50.06;97838.25;4788763;29;20661;-88
2023/08/30 03:56:15;;;;;;;10.40;3.67;;;;;;;26.76;50.89;97855.63;4781488;29;20256;-88
2023/08/30 03:58:40;;;;;;;8.03;3.77;;;;;;;26.72;51.41;97858.97;4790323;29;20616;-88
2023/08/30 04:01:06;;;;;;;7.60;3.87;;;;;;;26.74;50.77;97857.69;4787504;29;20189;-88
2023/08/30 04:03:33;;;;;;;5.30;3.33;;;;;;;26.69;51.28;97856.69;4806040;29;20194;-88
2023/08/30 04:06:00;;;;;;;4.80;3.28;;;;;;;26.66;51.33;97862.50;4780014;30;20207;-88
2023/08/30 04:08:27;;;;;;;12.40;3.73;;;;;;;26.52;52.33;97869.78;4776982;30;20186;-88
2023/08/30 04:10:53;;;;;;;8.63;4.13;;;;;;;26.47;52.90;97874.97;4805002;29;20195;-88
2023/08/30 04:13:19;;;;;;;6.60;3.67;;;;;;;26.54;52.82;97877.63;4800598;29;20266;-88
2023/08/30 04:15:44;;;;;;;11.57;3.53;;;;;;;26.58;52.77;97881.53;4805560;29;20179;-88
2023/08/30 04:18:10;;;;;;;6.25;3.90;;;;;;;26.54;52.74;97878.47;4776072;29;20247;-88
2023/08/30 04:20:35;;;;;;;13.73;4.20;;;;;;;26.47;53.23;97885.72;4789581;29;20215;-87
2023/08/30 04:23:02;;;;;;;16.53;5.00;;;;;;;26.47;53.42;97882.19;4797670;29;20208;-88
2023/08/30 04:25:29;;;;;;;8.37;3.87;;;;;;;26.51;53.22;97888.81;4801998;29;20245;-88
2023/08/30 04:27:54;;;;;;;12.33;4.37;;;;;;;26.48;53.33;97881.16;4790079;29;20721;-88
2023/08/30 04:30:21;;;;;;;11.93;4.13;;;;;;;26.43;54.01;97883.66;4801287;29;20190;-87
2023/08/30 04:32:47;;;;;;;9.32;3.97;;;;;;;26.41;54.01;97875.00;4804825;29;20187;-88
2023/08/30 04:35:13;;;;;;;7.63;3.57;;;;;;;26.46;53.96;97878.69;4805925;29;20557;-88
2023/08/30 04:37:40;;;;;;;4.93;3.17;;;;;;;26.52;54.14;97882.41;4805972;29;20182;-88
2023/08/30 04:40:10;;;;;;;9.90;4.03;;;;;;;26.46;55.48;97884.06;4806396;29;20193;-88
2023/08/30 04:42:37;;;;;;;6.88;4.50;;;;;;;26.51;55.91;97886.94;4805760;29;20554;-87
2023/08/30 04:45:04;;;;;;;7.90;3.65;;;;;;;26.69;55.25;97902.38;4806479;29;20267;-88
2023/08/30 04:47:30;;;;;;;7.22;3.88;;;;;;;26.96;54.61;97898.59;4806390;29;20200;-88
2023/08/30 04:49:57;;;;;;;6.00;3.78;;;;;;;27.03;54.32;97890.47;4790085;29;20185;-88
2023/08/30 04:52:24;;;;;;;7.03;3.70;;;;;;;27.04;54.42;97887.59;4805671;29;20579;-88
2023/08/30 04:54:50;;;;;;;8.65;4.30;;;;;;;27.14;53.98;97896.00;4805826;29;20261;-88
2023/08/30 04:57:17;;;;;;;9.95;4.53;;;;;;;27.24;53.77;97899.06;4805733;29;20194;-88
2023/08/30 04:59:44;;;;;;;8.93;4.57;;;;;;;27.29;53.96;97899.22;4805941;29;20186;-88
2023/08/30 05:02:10;;;;;;;7.50;4.40;;;;;;;27.36;53.59;97902.69;4805694;29;20183;-88
2023/08/30 05:04:37;;;;;;;7.70;4.25;;;;;;;27.38;53.88;97911.38;4805674;29;20214;-88
2023/08/30 05:07:04;;;;;;;8.75;4.22;;;;;;;27.49;54.00;97914.47;4805724;29;20209;-88
2023/08/30 05:09:32;;;;;;;10.38;4.95;;;;;;;27.58;54.45;97916.66;4805734;29;20186;-88
2023/08/30 05:11:59;;;;;;;13.23;6.30;;;;;;;27.58;54.08;97910.47;4804968;29;20209;-88
2023/08/30 05:14:25;;;;;;;15.30;6.43;;;;;;;27.65;53.58;97905.84;4799766;29;20191;-88
2023/08/30 05:16:51;;;;;;;19.98;6.90;;;;;;;27.79;53.53;97912.78;4787658;30;20183;-88
2023/08/30 05:19:16;;;;;;;13.43;6.43;;;;;;;27.88;53.20;97916.88;4787689;29;20634;-88
2023/08/30 05:21:44;;;;;;;10.30;6.10;;;;;;;27.91;53.37;97911.84;4786939;30;20191;-88
2023/08/30 05:24:13;;;;;;;15.63;6.05;;;;;;;28.05;53.11;97909.91;4786892;30;20695;-88
2023/08/30 05:26:40;;;;;;;11.82;6.13;;;;;;;28.15;53.61;97910.22;4770945;30;20214;-88
2023/08/30 05:29:06;;;;;;;14.98;5.85;;;;;;;28.24;52.81;97911.59;4784754;30;20187;-88
2023/08/30 05:31:32;;;;;;;15.48;6.00;;;;;;;28.41;52.15;97912.66;4786253;29;20199;-88
2023/08/30 05:33:58;;;;;;;9.60;4.40;;;;;;;28.60;52.08;97918.88;4806816;29;20183;-87
2023/08/30 05:36:25;;;;;;;15.05;6.10;;;;;;;28.74;51.32;97908.81;4806290;29;20209;-88
2023/08/30 05:38:52;;;;;;;11.82;5.30;;;;;;;28.89;50.53;97911.94;4791161;29;20190;-88
2023/08/30 05:41:18;;;;;;;11.45;4.22;;;;;;;28.97;50.19;97907.06;4807154;29;20185;-88
2023/08/30 05:43:44;;;;;;;8.55;4.88;;;;;;;29.06;50.86;97912.97;4806870;29;20195;-88
2023/08/30 05:46:14;;;;;;;11.65;4.90;;;;;;;29.12;49.56;97915.56;4790790;29;20277;-88
2023/08/30 05:48:41;;;;;;;10.43;4.93;;;;;;;29.16;48.15;97910.56;4790898;29;20277;-88
2023/08/30 05:51:07;;;;;;;11.88;4.45;;;;;;;29.16;48.21;97911.38;4790531;29;20241;-88
2023/08/30 05:53:34;;;;;;;8.75;5.18;;;;;;;29.28;49.14;97914.13;4790564;29;20205;-88
2023/08/30 05:56:01;;;;;;;9.80;4.63;;;;;;;29.31;48.65;97911.00;4790322;29;20194;-87
2023/08/30 05:58:27;;;;;;;6.55;3.60;;;;;;;29.39;49.03;97916.06;4805551;29;20190;-88
2023/08/30 06:00:53;;;;;;;7.68;4.65;;;;;;;29.61;48.37;97914.47;4792406;29;20359;-88
2023/08/30 06:03:19;;;;;;;10.80;4.13;;;;;;;29.67;46.87;97910.03;4808597;29;20321;-88
2023/08/30 06:05:48;;;;;;;11.35;4.90;;;;;;;29.73;47.29;97906.41;4807295;29;20226;-88
2023/08/30 06:08:13;;;;;;;10.30;5.32;;;;;;;30.01;47.17;97911.16;4807258;29;20196;-88
2023/08/30 06:10:41;;;;;;;9.20;5.50;;;;;;;30.22;46.26;97913.28;4792518;29;20190;-87
2023/08/30 06:13:07;;;;;;;9.20;5.18;;;;;;;30.43;46.19;97915.44;4808851;29;20190;-88
2023/08/30 06:15:33;;;;;;;11.82;5.45;;;;;;;30.72;45.30;97917.16;4808602;29;20277;-88
2023/08/30 06:18:00;;;;;;;17.70;6.90;;;;;;;31.05;44.34;97918.41;4792645;29;20269;-88
2023/08/30 06:20:26;;;;;;;21.10;6.53;;;;;;;31.27;44.36;97924.78;4792451;29;20182;-88
2023/08/30 06:22:52;;;;;;;16.98;6.75;;;;;;;31.46;42.64;97923.56;4793126;29;20190;-88
2023/08/30 06:25:17;;;;;;;12.60;7.03;;;;;;;31.78;41.23;97916.56;4791905;29;20222;-88
2023/08/30 06:27:56;;;;;;;15.40;6.90;;;;;;;32.03;40.93;97919.72;4791995;29;20197;-88
2023/08/30 06:30:22;;;;;;;14.05;7.72;;;;;;;32.29;40.74;97928.22;4808237;29;20198;-88
2023/08/30 06:32:49;;;;;;;17.27;7.57;;;;;;;32.62;39.76;97922.78;4807838;29;20641;-87
2023/08/30 06:35:16;;;;;;;16.27;6.45;;;;;;;32.90;40.19;97911.75;4806801;29;20606;-88
2023/08/30 06:37:42;;;;;;;12.00;7.32;;;;;;;33.21;39.31;97919.22;4807113;29;20191;-88
2023/08/30 06:40:09;;;;;;;14.85;6.68;;;;;;;33.62;38.16;97916.97;4808007;29;20187;-88
2023/08/30 06:42:38;;;;;;;13.80;5.60;;;;;;;33.91;37.92;97932.72;4807627;29;20285;-88
2023/08/30 06:45:05;;;;;;;15.07;5.97;;;;;;;34.09;36.24;97928.00;4807670;29;20278;-88
2023/08/30 06:47:32;;;;;;;13.13;6.07;;;;;;;34.25;36.87;97932.47;4808370;29;20190;-89
2023/08/30 06:50:00;;;;;;;11.02;6.45;;;;;;;34.42;36.25;97939.41;4791807;29;20192;-88
2023/08/30 06:52:27;;;;;;;16.52;7.30;;;;;;;34.52;35.53;97938.63;4808097;29;20202;-88
2023/08/30 06:54:53;;;;;;;11.18;7.35;;;;;;;34.66;35.80;97941.75;4807185;29;20610;-88
2023/08/30 06:57:21;;;;;;;15.02;6.53;;;;;;;34.78;36.21;97943.16;4807946;29;20190;-88
2023/08/30 06:59:48;;;;;;;10.27;6.47;;;;;;;34.89;34.90;97941.31;4807189;29;20535;-88
2023/08/30 07:02:13;;;;;;;12.68;5.80;;;;;;;34.74;35.21;97936.63;4791355;29;20744;-88
2023/08/30 07:04:40;;;;;;;10.23;5.70;;;;;;;34.87;35.83;97938.03;4791530;29;20219;-88
2023/08/30 07:07:07;;;;;;;13.40;6.30;;;;;;;35.11;34.37;97950.19;4807385;29;20225;-88
2023/08/30 07:09:33;;;;;;;10.07;6.20;;;;;;;35.23;34.82;97953.47;4806163;29;20190;-88
2023/08/30 07:12:00;;;;;;;12.95;5.85;;;;;;;35.29;34.24;97946.97;4791028;29;20263;-88
2023/08/30 07:14:27;;;;;;;9.63;5.97;;;;;;;35.32;34.67;97954.63;4806133;29;20192;-88
2023/08/30 07:16:54;;;;;;;9.48;5.75;;;;;;;35.37;34.48;97949.19;4806407;29;20190;-88
2023/08/30 07:19:20;;;;;;;12.90;6.25;;;;;;;35.56;33.81;97942.16;4807040;29;20214;-88
2023/08/30 07:21:47;;;;;;;14.27;5.82;;;;;;;35.16;34.51;97940.13;4791039;29;20187;-88
2023/08/30 07:24:14;;;;;;;10.93;5.18;;;;;;;35.02;35.14;97954.44;4806785;29;20323;-88
2023/08/30 07:26:41;;;;;;;11.38;5.60;;;;;;;34.43;35.36;97951.94;4790857;29;20605;-88
2023/08/30 07:29:09;;;;;;;8.13;5.07;;;;;;;34.53;35.65;97954.72;4806813;29;20179;-88
2023/08/30 07:31:35;;;;;;;10.20;5.65;;;;;;;34.75;34.95;97953.78;4807161;29;20543;-88
2023/08/30 07:34:02;;;;;;;9.25;5.30;;;;;;;34.83;34.69;97950.56;4806737;29;20190;-88
2023/08/30 07:36:30;;;;;;;8.18;4.88;;;;;;;35.01;34.24;97950.09;4807254;29;20178;-88
2023/08/30 07:38:55;;;;;;;9.15;4.82;;;;;;;35.14;33.55;97942.28;4806401;29;20201;-88
2023/08/30 07:41:22;;;;;;;7.75;4.63;;;;;;;35.23;33.75;97939.84;4806666;29;20187;-88
2023/08/30 07:43:48;;;;;;;7.97;4.57;;;;;;;35.49;33.58;97944.28;4791477;29;20343;-88
2023/08/30 07:46:15;;;;;;;8.18;4.40;;;;;;;35.64;33.30;97938.91;4791493;29;20206;-89
2023/08/30 07:48:42;;;;;;;9.70;5.25;;;;;;;35.65;33.62;97946.00;4806763;29;20193;-88
2023/08/30 07:51:07;;;;;;;11.82;4.07;;;;;;;35.62;33.67;97942.97;4806584;29;20332;-88
2023/08/30 07:53:33;;;;;;;11.55;4.55;;;;;;;35.70;32.66;97956.91;4805785;29;20606;-88
2023/08/30 07:55:59;;;;;;;6.72;4.32;;;;;;;35.63;33.35;97952.81;4805995;29;20185;-89
2023/08/30 07:58:26;;;;;;;6.32;4.05;;;;;;;35.67;33.26;97941.09;4806428;29;20208;-88
2023/08/30 08:00:53;;;;;;;11.07;4.80;;;;;;;35.76;32.84;97939.47;4790363;29;20282;-88
2023/08/30 08:03:21;;;;;;;9.40;4.45;;;;;;;35.85;32.08;97947.91;4806318;29;20193;-89
2023/08/30 08:05:48;;;;;;;7.82;4.00;;;;;;;35.97;32.19;97945.75;4790296;29;20221;-88
2023/08/30 08:08:14;;;;;;;8.65;4.72;;;;;;;35.63;32.72;97953.63;4806271;29;20204;-89
2023/08/30 08:10:42;;;;;;;6.85;4.40;;;;;;;35.77;33.55;97946.53;4790326;29;20194;-88
2023/08/30 08:13:15;;;;;;;9.13;4.85;;;;;;;35.97;32.53;97955.84;4806038;29;20186;-89
2023/08/30 08:15:41;;;;;;;6.82;4.22;;;;;;;35.91;31.72;97949.56;4806377;29;20190;-88
2023/08/30 08:18:10;;;;;;;8.15;4.88;;;;;;;35.83;32.97;97954.72;4806337;29;20218;-89
2023/08/30 08:20:39;;;;;;;8.45;4.18;;;;;;;35.89;33.06;97959.13;4806641;29;20182;-88
2023/08/30 08:23:04;;;;;;;9.27;4.25;;;;;;;36.11;32.34;97956.97;4806104;29;20256;-88
2023/08/30 08:25:30;;;;;;;7.53;4.05;;;;;;;36.19;31.17;97959.16;4806005;29;20214;-88
2023/08/30 08:27:55;;;;;;;6.10;4.07;;;;;;;35.99;31.50;97961.84;4806313;29;20272;-89
2023/08/30 08:30:21;;;;;;;7.55;4.28;;;;;;;36.09;31.79;97950.97;4806302;29;20186;-89
2023/08/30 08:32:47;;;;;;;9.65;4.47;;;;;;;36.28;32.16;97954.78;4805777;29;20205;-88
2023/08/30 08:35:13;;;;;;;14.27;4.32;;;;;;;36.42;32.71;97947.69;4790052;29;20214;-88
2023/08/30 08:37:40;;;;;;;12.55;3.97;;;;;;;36.43;31.25;97949.31;4805917;29;20190;-89
2023/08/30 08:40:10;;;;;;;12.52;4.43;;;;;;;36.55;31.98;97952.59;4805744;29;20541;-89
2023/08/30 08:42:37;;;;;;;8.02;3.95;;;;;;;36.71;31.71;97948.75;4806162;29;20182;-88
2023/08/30 08:45:04;;;;;;;11.57;4.65;;;;;;;36.77;31.62;97942.16;4789890;29;20210;-88
2023/08/30 08:47:31;;;;;;;6.25;4.25;;;;;;;36.84;31.21;97950.06;4805902;29;20189;-88
2023/08/30 08:49:57;;;;;;;7.10;4.93;;;;;;;36.57;31.43;97950.41;4806113;29;20186;-88
2023/08/30 08:52:24;;;;;;;8.88;4.90;;;;;;;36.76;30.76;97943.28;4806380;29;20649;-88
2023/08/30 08:54:50;;;;;;;9.45;3.95;;;;;;;37.01;31.01;97947.03;4804831;29;20189;-88
2023/08/30 08:57:17;;;;;;;12.02;3.97;;;;;;;37.03;31.11;97942.13;4806039;29;20178;-88
2023/08/30 08:59:43;;;;;;;7.38;4.28;;;;;;;37.07;30.23;97932.25;4805775;29;20187;-88
2023/08/30 09:02:11;;;;;;;6.93;4.65;;;;;;;36.91;30.30;97934.19;4790563;29;20212;-89
2023/08/30 09:04:39;;;;;;;7.97;4.72;;;;;;;36.68;30.55;97930.19;4805124;29;20187;-88
2023/08/30 09:07:04;;;;;;;7.43;4.40;;;;;;;36.79;30.80;97936.44;4791700;29;20608;-88
2023/08/30 09:09:31;;;;;;;7.30;4.25;;;;;;;36.74;31.69;97926.31;4809258;29;20187;-88
2023/08/30 09:11:57;;;;;;;6.57;4.15;;;;;;;36.97;31.08;97929.56;4809112;29;20202;-88
2023/08/30 09:14:24;;;;;;;7.65;4.75;;;;;;;37.36;30.36;97925.00;4809128;29;20187;-88
2023/08/30 09:17:02;;;;;;;8.45;4.57;;;;;;;37.52;30.04;97918.38;4793253;29;20186;-88
2023/08/30 09:19:28;;;;;;;9.20;4.72;;;;;;;37.45;30.24;97920.59;4809250;29;20585;-88
2023/08/30 09:21:57;;;;;;;8.75;4.65;;;;;;;37.59;29.50;97927.06;4808383;29;20186;-88
2023/08/30 09:24:23;;;;;;;8.93;3.60;;;;;;;37.76;30.24;97913.84;4809090;29;20194;-89
2023/08/30 09:26:51;;;;;;;8.68;3.90;;;;;;;38.04;30.11;97915.81;4809194;29;20214;-88
2023/08/30 09:29:18;;;;;;;7.63;4.20;;;;;;;38.16;28.88;97909.97;4809109;29;20214;-88
2023/08/30 09:31:46;;;;;;;11.00;5.03;;;;;;;38.14;29.34;97909.44;4808891;29;20197;-89
2023/08/30 09:34:12;;;;;;;7.30;4.65;;;;;;;38.26;28.88;97903.59;4809092;29;20197;-88
2023/08/30 09:36:42;;;;;;;7.07;4.10;;;;;;;38.39;28.45;97892.00;4808649;29;20182;-88
2023/08/30 09:39:13;;;;;;;9.38;4.13;;;;;;;38.26;28.21;97901.69;4809305;29;20636;-87
2023/08/30 09:41:44;;;;;;;9.80;5.38;;;;;;;38.33;29.14;97891.22;4809086;29;20170;-89
2023/08/30 09:44:21;;;;;;;11.02;4.68;;;;;;;38.47;28.45;97894.88;4808376;29;20209;-88
2023/08/30 09:46:52;;;;;;;6.53;3.65;;;;;;;38.58;29.08;97888.19;4808773;29;20289;-89
2023/08/30 09:49:26;;;;;;;9.40;4.78;;;;;;;38.39;28.31;97890.06;4809248;29;20253;-88
2023/08/30 09:51:54;;;;;;;7.75;4.15;;;;;;;38.38;28.55;97887.59;4808647;29;20237;-89
2023/08/30 09:54:23;;;;;;;7.00;4.00;;;;;;;38.31;27.69;97882.50;4808594;29;20233;-88
2023/08/30 09:56:52;;;;;;;8.98;4.55;;;;;;;38.18;28.50;97879.56;4808550;29;20178;-88
2023/08/30 09:59:18;;;;;;;6.70;4.43;;;;;;;38.34;29.12;97870.94;4808462;29;20192;-88
2023/08/30 10:01:43;;;;;;;6.60;4.25;;;;;;;38.60;29.10;97875.03;4808952;29;20187;-88
2023/08/30 10:04:10;;;;;;;9.50;4.38;;;;;;;38.77;28.46;97874.59;4807627;29;20193;-89
2023/08/30 10:06:37;;;;;;;10.73;4.45;;;;;;;38.83;28.03;97861.66;4807274;29;20225;-88
2023/08/30 10:09:04;;;;;;;8.70;4.57;;;;;;;38.62;28.05;97866.53;4808289;29;20209;-89
2023/08/30 10:11:34;;;;;;;8.93;4.53;;;;;;;38.91;27.60;97872.78;4807202;29;20273;-88
2023/08/30 10:14:00;;;;;;;6.35;4.15;;;;;;;39.16;27.34;97858.72;4807223;29;20202;-88
2023/08/30 10:16:36;;;;;;;6.60;3.92;;;;;;;39.19;27.34;97858.16;4792266;29;20190;-88
2023/08/30 10:19:07;;;;;;;6.53;4.55;;;;;;;39.42;27.20;97855.63;4795562;29;20194;-87
2023/08/30 10:21:35;;;;;;;7.90;4.30;;;;;;;39.12;26.56;97849.47;4799627;29;20251;-87
2023/08/30 10:24:03;;;;;;;8.80;4.65;;;;;;;38.69;27.72;97853.28;4807211;29;20194;-88
2023/08/30 10:26:32;;;;;;;13.05;4.43;;;;;;;38.98;27.50;97845.81;4791831;29;20238;-88
2023/08/30 10:29:00;;;;;;;6.43;3.83;;;;;;;38.64;27.67;97850.63;4808297;29;20190;-87
2023/08/30 10:31:28;;;;;;;11.35;4.18;;;;;;;38.67;27.87;97847.28;4792255;29;20351;-87
2023/08/30 10:33:55;;;;;;;8.15;4.63;;;;;;;39.14;27.28;97841.75;4807725;29;20622;-87
2023/08/30 10:36:26;;;;;;;6.03;3.75;;;;;;;39.59;26.41;97832.06;4807668;29;20572;-87
2023/08/30 10:38:56;;;;;;;10.57;4.22;;;;;;;39.80;26.49;97832.56;4807775;29;20178;-88
2023/08/30 10:41:26;;;;;;;6.30;4.05;;;;;;;39.85;26.86;97835.22;4791827;29;20594;-88
2023/08/30 10:43:55;;;;;;;10.73;4.70;;;;;;;39.81;26.71;97828.69;4792161;29;20200;-87
2023/08/30 10:46:36;;;;;;;7.20;3.97;;;;;;;39.63;26.40;97821.31;4806944;29;20674;-88
2023/08/30 10:49:14;;;;;;;6.97;3.65;;;;;;;39.76;26.19;97820.53;4807025;29;20613;-87
2023/08/30 10:51:41;;;;;;;8.93;4.20;;;;;;;39.98;25.97;97806.97;4806661;29;20297;-87
2023/08/30 10:54:14;;;;;;;8.93;4.18;;;;;;;40.16;26.04;97803.38;4807561;29;20183;-88
2023/08/30 10:57:12;;;;;;;8.57;4.38;;;;;;;40.31;26.16;97800.31;4806568;29;20645;-88
2023/08/30 10:59:37;;;;;;;8.13;3.92;;;;;;;40.36;25.57;97796.66;4807607;29;20213;-87
2023/08/30 11:02:03;;;;;;;10.80;4.20;;;;;;;40.37;25.90;97798.28;4791419;29;20282;-88
2023/08/30 11:04:29;;;;;;;7.93;4.10;;;;;;;40.51;26.56;97799.16;4807309;29;20255;-87
2023/08/30 11:06:55;;;;;;;8.60;3.92;;;;;;;40.73;25.45;97798.38;4806384;29;20186;-87
2023/08/30 11:09:23;;;;;;;6.72;3.28;;;;;;;40.60;25.50;97790.97;4806300;29;20190;-87
2023/08/30 11:11:50;;;;;;;7.97;3.25;;;;;;;40.73;25.08;97795.66;4791324;29;20228;-90
2023/08/30 11:14:17;;;;;;;7.03;3.20;;;;;;;41.08;24.53;97786.66;4806356;29;20605;-87
2023/08/30 11:16:44;;;;;;;5.05;2.88;;;;;;;41.10;24.35;97784.41;4807395;29;20191;-87
2023/08/30 11:19:12;;;;;;;7.90;3.80;;;;;;;40.73;25.20;97779.16;4806912;29;20186;-88
2023/08/30 11:21:42;;;;;;;4.65;3.17;;;;;;;40.43;24.53;97777.84;4806428;29;20190;-88
2023/08/30 11:24:09;;;;;;;4.38;3.42;;;;;;;40.35;25.91;97779.38;4806360;29;20183;-87
2023/08/30 11:26:35;;;;;;;5.65;3.45;;;;;;;40.24;24.64;97777.13;4791155;29;20232;-89
2023/08/30 11:29:08;;;;;;;5.30;3.58;;;;;;;40.03;24.82;97775.88;4790732;29;20178;-89
2023/08/30 11:31:34;;;;;;;5.28;3.22;;;;;;;40.14;25.16;97771.84;4805887;29;20187;-87
2023/08/30 11:34:00;;;;;;;6.63;3.78;;;;;;;40.14;25.91;97761.69;4806651;29;20227;-87